sensor_id;sensor_type;location;lat;lon;timestamp;pressure;altitude;pressure_sealevel;temperature;humidity
76687;BME280;65615;47.378;19.344;2023-04-03T04:27:55;100154.91;;;5.76;100.00
76687;BME280;65615;47.378;19.344;2023-04-03T04:32:03;100154.91;;;5.76;100.00
76687;BME280;65615;47.378;19.344;2023-04-03T04:36:06;100156.66;;;5.13;100.00
76687;BME280;65615;47.378;19.344;2023-04-03T04:40:12;100153.34;;;5.11;100.00
76687;BME280;65615;47.378;19.344;2023-04-03T04:44:24;100161.66;;;5.16;100.00
76687;BME280;65615;47.378;19.344;2023-04-03T04:48:27;100167.31;;;5.33;100.00
76687;BME280;65615;47.378;19.344;2023-04-03T04:52:34;100160.81;;;5.16;100.00
76687;BME280;65615;47.378;19.344;2023-04-03T04:56:38;100161.88;;;5.13;100.00
76687;BME280;65615;47.378;19.344;2023-04-03T05:00:42;100162.72;;;5.14;98.19
76687;BME280;65615;47.378;19.344;2023-04-03T05:04:47;100175.97;;;5.01;99.16
76687;BME280;65615;47.378;19.344;2023-04-03T05:08:54;100176.94;;;5.00;99.71
76687;BME280;65615;47.378;19.344;2023-04-03T05:13:00;100187.53;;;4.99;98.88
76687;BME280;65615;47.378;19.344;2023-04-03T05:17:03;100186.44;;;5.12;98.49
76687;BME280;65615;47.378;19.344;2023-04-03T05:21:08;100188.34;;;5.10;98.64
76687;BME280;65615;47.378;19.344;2023-04-03T05:25:12;100179.78;;;4.97;99.55
76687;BME280;65615;47.378;19.344;2023-04-03T05:29:16;100184.03;;;5.09;99.06
76687;BME280;65615;47.378;19.344;2023-04-03T05:33:20;100190.59;;;5.04;99.83
76687;BME280;65615;47.378;19.344;2023-04-03T05:37:24;100188.06;;;5.13;99.46
76687;BME280;65615;47.378;19.344;2023-04-03T05:41:28;100193.50;;;5.01;100.00
76687;BME280;65615;47.378;19.344;2023-04-03T05:45:31;100196.00;;;5.23;98.31
76687;BME280;65615;47.378;19.344;2023-04-03T05:49:35;100193.63;;;5.52;97.43
76687;BME280;65615;47.378;19.344;2023-04-03T05:53:42;100192.22;;;5.48;97.10
76687;BME280;65615;47.378;19.344;2023-04-03T05:57:55;100197.44;;;5.48;95.36
76687;BME280;65615;47.378;19.344;2023-04-03T06:02:35;100197.97;;;5.42;95.80
76687;BME280;65615;47.378;19.344;2023-04-03T06:07:20;100209.38;;;5.72;94.88
76687;BME280;65615;47.378;19.344;2023-04-03T06:11:31;100209.31;;;5.83;94.46
76687;BME280;65615;47.378;19.344;2023-04-03T06:15:45;100208.00;;;5.89;92.14
76687;BME280;65615;47.378;19.344;2023-04-03T06:20:12;100215.41;;;6.05;91.56
76687;BME280;65615;47.378;19.344;2023-04-03T06:24:57;100226.72;;;6.05;88.83
76687;BME280;65615;47.378;19.344;2023-04-03T06:29:09;100211.78;;;6.26;88.78
76687;BME280;65615;47.378;19.344;2023-04-03T06:33:33;100215.16;;;6.47;89.04
76687;BME280;65615;47.378;19.344;2023-04-03T06:38:24;100212.28;;;6.50;88.06
76687;BME280;65615;47.378;19.344;2023-04-03T06:43:06;100210.41;;;6.32;91.24
76687;BME280;65615;47.378;19.344;2023-04-03T06:47:46;100221.84;;;6.21;88.31
76687;BME280;65615;47.378;19.344;2023-04-03T06:51:52;100234.50;;;6.46;87.72
76687;BME280;65615;47.378;19.344;2023-04-03T06:56:09;100241.97;;;6.41;86.58
76687;BME280;65615;47.378;19.344;2023-04-03T07:00:17;100232.91;;;6.64;85.05
76687;BME280;65615;47.378;19.344;2023-04-03T07:05:02;100233.28;;;7.00;82.19
76687;BME280;65615;47.378;19.344;2023-04-03T07:09:10;100247.59;;;7.64;81.27
76687;BME280;65615;47.378;19.344;2023-04-03T07:13:21;100252.38;;;8.16;79.70
76687;BME280;65615;47.378;19.344;2023-04-03T07:17:48;100257.13;;;8.03;79.62
76687;BME280;65615;47.378;19.344;2023-04-03T07:22:08;100259.44;;;8.35;76.12
76687;BME280;65615;47.378;19.344;2023-04-03T07:27:02;100259.22;;;7.71;79.39
76687;BME280;65615;47.378;19.344;2023-04-03T07:31:41;100259.50;;;7.87;79.62
76687;BME280;65615;47.378;19.344;2023-04-03T07:36:21;100257.13;;;7.84;76.88
76687;BME280;65615;47.378;19.344;2023-04-03T07:41:26;100258.63;;;8.15;77.85
76687;BME280;65615;47.378;19.344;2023-04-03T07:46:50;100273.41;;;8.16;75.64
76687;BME280;65615;47.378;19.344;2023-04-03T07:56:17;100273.66;;;8.51;78.71
76687;BME280;65615;47.378;19.344;2023-04-03T08:00:20;100273.38;;;9.09;76.83
76687;BME280;65615;47.378;19.344;2023-04-03T08:04:30;100271.09;;;9.94;72.66
76687;BME280;65615;47.378;19.344;2023-04-03T08:08:37;100269.66;;;9.64;72.57
76687;BME280;65615;47.378;19.344;2023-04-03T08:12:45;100276.06;;;9.79;71.77
76687;BME280;65615;47.378;19.344;2023-04-03T08:17:02;100279.47;;;9.54;71.02
76687;BME280;65615;47.378;19.344;2023-04-03T08:21:10;100282.56;;;9.50;71.80
76687;BME280;65615;47.378;19.344;2023-04-03T08:25:14;100288.47;;;9.34;70.59
76687;BME280;65615;47.378;19.344;2023-04-03T08:29:19;100294.84;;;9.41;71.04
76687;BME280;65615;47.378;19.344;2023-04-03T08:33:23;100303.06;;;9.11;72.71
76687;BME280;65615;47.378;19.344;2023-04-03T08:37:30;100298.69;;;9.64;72.25
76687;BME280;65615;47.378;19.344;2023-04-03T08:41:43;100307.16;;;9.23;71.24
76687;BME280;65615;47.378;19.344;2023-04-03T08:46:23;100308.69;;;9.43;67.94
76687;BME280;65615;47.378;19.344;2023-04-03T08:50:59;100307.78;;;9.52;68.77
76687;BME280;65615;47.378;19.344;2023-04-03T08:56:11;100309.75;;;9.50;71.41
76687;BME280;65615;47.378;19.344;2023-04-03T09:00:22;100304.09;;;9.45;72.16
76687;BME280;65615;47.378;19.344;2023-04-03T09:04:29;100308.63;;;9.53;68.93
76687;BME280;65615;47.378;19.344;2023-04-03T09:09:02;100308.56;;;9.97;70.14
76687;BME280;65615;47.378;19.344;2023-04-03T09:18:16;100300.19;;;10.19;67.15
76687;BME280;65615;47.378;19.344;2023-04-03T09:22:28;100310.19;;;10.34;67.46
76687;BME280;65615;47.378;19.344;2023-04-03T09:26:56;100315.41;;;10.25;68.48
76687;BME280;65615;47.378;19.344;2023-04-03T09:31:33;100319.09;;;10.33;66.86
76687;BME280;65615;47.378;19.344;2023-04-03T09:35:37;100327.16;;;11.08;69.64
76687;BME280;65615;47.378;19.344;2023-04-03T09:40:05;100311.16;;;10.58;64.10
76687;BME280;65615;47.378;19.344;2023-04-03T09:44:23;100317.38;;;11.08;63.51
76687;BME280;65615;47.378;19.344;2023-04-03T09:48:27;100317.12;;;11.85;61.06
76687;BME280;65615;47.378;19.344;2023-04-03T09:52:30;100323.44;;;12.96;63.00
76687;BME280;65615;47.378;19.344;2023-04-03T09:56:42;100318.59;;;12.60;62.21
76687;BME280;65615;47.378;19.344;2023-04-03T10:00:56;100317.75;;;13.53;57.08
76687;BME280;65615;47.378;19.344;2023-04-03T10:05:25;100314.31;;;13.14;62.54
76687;BME280;65615;47.378;19.344;2023-04-03T10:09:32;100311.06;;;12.88;57.86
76687;BME280;65615;47.378;19.344;2023-04-03T10:14:01;100319.09;;;13.03;57.92
76687;BME280;65615;47.378;19.344;2023-04-03T10:18:14;100311.84;;;12.34;57.46
76687;BME280;65615;47.378;19.344;2023-04-03T10:22:37;100319.28;;;12.38;56.27
76687;BME280;65615;47.378;19.344;2023-04-03T10:27:05;100321.41;;;11.94;58.22
76687;BME280;65615;47.378;19.344;2023-04-03T10:31:28;100316.38;;;11.59;55.82
76687;BME280;65615;47.378;19.344;2023-04-03T10:49:05;100307.94;;;11.48;61.45
76687;BME280;65615;47.378;19.344;2023-04-03T10:58:00;100297.31;;;10.90;59.38
76687;BME280;65615;47.378;19.344;2023-04-03T11:11:31;100297.09;;;10.50;60.86
76687;BME280;65615;47.378;19.344;2023-04-03T11:15:41;100300.75;;;10.57;58.53
76687;BME280;65615;47.378;19.344;2023-04-03T11:30:28;100281.06;;;10.77;62.17
76687;BME280;65615;47.378;19.344;2023-04-03T11:34:39;100276.41;;;10.71;60.99
76687;BME280;65615;47.378;19.344;2023-04-03T11:38:47;100270.66;;;10.16;62.28
76687;BME280;65615;47.378;19.344;2023-04-03T11:42:55;100279.59;;;10.23;60.66
76687;BME280;65615;47.378;19.344;2023-04-03T11:56:56;100262.41;;;10.19;59.02
76687;BME280;65615;47.378;19.344;2023-04-03T12:01:12;100260.47;;;10.55;59.40
76687;BME280;65615;47.378;19.344;2023-04-03T12:10:29;100249.69;;;10.74;59.50
76687;BME280;65615;47.378;19.344;2023-04-03T12:14:41;100238.94;;;11.25;58.23
76687;BME280;65615;47.378;19.344;2023-04-03T12:27:34;100236.66;;;11.62;54.77
76687;BME280;65615;47.378;19.344;2023-04-03T12:33:10;100232.06;;;11.56;54.57
76687;BME280;65615;47.378;19.344;2023-04-03T12:50:30;100229.75;;;15.69;42.73
76687;BME280;65615;47.378;19.344;2023-04-03T12:54:41;100234.25;;;16.17;42.49
76687;BME280;65615;47.378;19.344;2023-04-03T12:58:49;100219.44;;;15.87;42.25
76687;BME280;65615;47.378;19.344;2023-04-03T13:02:53;100207.31;;;17.28;40.83
76687;BME280;65615;47.378;19.344;2023-04-03T13:06:58;100211.97;;;15.76;43.27
76687;BME280;65615;47.378;19.344;2023-04-03T13:11:07;100210.91;;;15.70;43.83
76687;BME280;65615;47.378;19.344;2023-04-03T13:15:57;100208.50;;;15.18;43.51
76687;BME280;65615;47.378;19.344;2023-04-03T13:20:12;100211.53;;;14.36;44.43
76687;BME280;65615;47.378;19.344;2023-04-03T13:24:15;100204.22;;;14.01;44.92
76687;BME280;65615;47.378;19.344;2023-04-03T13:28:22;100201.44;;;14.31;42.59
76687;BME280;65615;47.378;19.344;2023-04-03T13:32:44;100201.66;;;13.93;44.98
76687;BME280;65615;47.378;19.344;2023-04-03T13:40:55;100193.47;;;13.12;48.41
76687;BME280;65615;47.378;19.344;2023-04-03T13:45:23;100185.19;;;13.07;49.11
76687;BME280;65615;47.378;19.344;2023-04-03T13:50:01;100187.62;;;12.39;49.82
76687;BME280;65615;47.378;19.344;2023-04-03T13:54:38;100192.00;;;12.16;51.37
76687;BME280;65615;47.378;19.344;2023-04-03T13:58:59;100197.31;;;11.51;51.34
76687;BME280;65615;47.378;19.344;2023-04-03T14:03:12;100182.47;;;11.58;51.28
76687;BME280;65615;47.378;19.344;2023-04-03T14:07:16;100184.41;;;11.24;52.74
76687;BME280;65615;47.378;19.344;2023-04-03T14:11:26;100183.13;;;11.84;52.20
76687;BME280;65615;47.378;19.344;2023-04-03T14:15:32;100188.09;;;11.71;51.26
76687;BME280;65615;47.378;19.344;2023-04-03T14:19:35;100182.09;;;11.37;52.36
76687;BME280;65615;47.378;19.344;2023-04-03T14:23:39;100179.16;;;11.40;52.74
76687;BME280;65615;47.378;19.344;2023-04-03T14:27:44;100177.81;;;11.20;51.01
76687;BME280;65615;47.378;19.344;2023-04-03T14:31:49;100177.44;;;11.07;49.98
76687;BME280;65615;47.378;19.344;2023-04-03T14:35:59;100174.84;;;11.47;51.38
76687;BME280;65615;47.378;19.344;2023-04-03T14:40:03;100176.47;;;11.16;49.71
76687;BME280;65615;47.378;19.344;2023-04-03T14:44:07;100176.72;;;10.89;48.44
76687;BME280;65615;47.378;19.344;2023-04-03T14:48:22;100174.78;;;11.07;49.93
76687;BME280;65615;47.378;19.344;2023-04-03T14:52:30;100171.53;;;11.29;48.25
76687;BME280;65615;47.378;19.344;2023-04-03T14:56:34;100174.50;;;11.18;49.92
76687;BME280;65615;47.378;19.344;2023-04-03T15:00:37;100172.16;;;11.23;51.72
76687;BME280;65615;47.378;19.344;2023-04-03T15:04:40;100179.75;;;11.02;49.47
76687;BME280;65615;47.378;19.344;2023-04-03T15:08:44;100173.06;;;10.74;49.31
76687;BME280;65615;47.378;19.344;2023-04-03T15:12:48;100174.75;;;10.91;50.46
76687;BME280;65615;47.378;19.344;2023-04-03T15:16:51;100171.41;;;10.81;50.51
76687;BME280;65615;47.378;19.344;2023-04-03T15:20:54;100179.72;;;10.86;50.01
